sensor_id;sensor_type;location;lat;lon;timestamp;P1;durP1;ratioP1;P2;durP2;ratioP2
20699;SDS011;10511;51.232;9.420;2023-04-03T00:00:49;1.30;;;1.30;;
20699;SDS011;10511;51.232;9.420;2023-04-03T00:03:17;1.40;;;1.40;;
20699;SDS011;10511;51.232;9.420;2023-04-03T00:05:45;1.30;;;1.30;;
20699;SDS011;10511;51.232;9.420;2023-04-03T00:08:14;1.40;;;1.40;;
20699;SDS011;10511;51.232;9.420;2023-04-03T00:10:44;1.40;;;1.40;;
20699;SDS011;10511;51.232;9.420;2023-04-03T00:13:13;1.50;;;1.50;;
20699;SDS011;10511;51.232;9.420;2023-04-03T00:15:41;1.50;;;1.50;;
20699;SDS011;10511;51.232;9.420;2023-04-03T00:18:10;1.40;;;1.40;;
20699;SDS011;10511;51.232;9.420;2023-04-03T00:20:38;1.50;;;1.50;;
20699;SDS011;10511;51.232;9.420;2023-04-03T00:23:05;1.50;;;1.50;;
20699;SDS011;10511;51.232;9.420;2023-04-03T00:25:33;1.50;;;1.50;;
20699;SDS011;10511;51.232;9.420;2023-04-03T00:28:05;1.40;;;1.40;;
20699;SDS011;10511;51.232;9.420;2023-04-03T00:30:33;1.40;;;1.40;;
20699;SDS011;10511;51.232;9.420;2023-04-03T00:33:01;1.40;;;1.40;;
20699;SDS011;10511;51.232;9.420;2023-04-03T00:35:29;1.50;;;1.50;;
20699;SDS011;10511;51.232;9.420;2023-04-03T00:37:57;1.50;;;1.50;;
20699;SDS011;10511;51.232;9.420;2023-04-03T00:40:25;1.40;;;1.40;;
20699;SDS011;10511;51.232;9.420;2023-04-03T00:42:55;1.40;;;1.40;;
20699;SDS011;10511;51.232;9.420;2023-04-03T00:45:30;1.50;;;1.50;;
20699;SDS011;10511;51.232;9.420;2023-04-03T00:48:00;1.50;;;1.50;;
20699;SDS011;10511;51.232;9.420;2023-04-03T00:50:31;1.47;;;1.47;;
20699;SDS011;10511;51.232;9.420;2023-04-03T00:53:02;1.50;;;1.50;;
20699;SDS011;10511;51.232;9.420;2023-04-03T00:55:32;1.40;;;1.40;;
20699;SDS011;10511;51.232;9.420;2023-04-03T00:58:01;1.40;;;1.40;;
20699;SDS011;10511;51.232;9.420;2023-04-03T01:00:32;1.40;;;1.40;;
20699;SDS011;10511;51.232;9.420;2023-04-03T01:03:02;1.40;;;1.40;;
20699;SDS011;10511;51.232;9.420;2023-04-03T01:05:31;1.50;;;1.50;;
20699;SDS011;10511;51.232;9.420;2023-04-03T01:07:59;1.50;;;1.50;;
20699;SDS011;10511;51.232;9.420;2023-04-03T01:10:27;1.40;;;1.40;;
20699;SDS011;10511;51.232;9.420;2023-04-03T01:12:54;1.60;;;1.60;;
20699;SDS011;10511;51.232;9.420;2023-04-03T01:15:22;1.50;;;1.50;;
20699;SDS011;10511;51.232;9.420;2023-04-03T01:17:53;1.40;;;1.40;;
20699;SDS011;10511;51.232;9.420;2023-04-03T01:23:28;1.50;;;1.50;;
20699;SDS011;10511;51.232;9.420;2023-04-03T01:26:08;1.57;;;1.57;;
20699;SDS011;10511;51.232;9.420;2023-04-03T01:28:36;1.50;;;1.50;;
20699;SDS011;10511;51.232;9.420;2023-04-03T01:31:06;1.50;;;1.50;;
20699;SDS011;10511;51.232;9.420;2023-04-03T01:33:41;1.60;;;1.60;;
20699;SDS011;10511;51.232;9.420;2023-04-03T01:36:13;1.60;;;1.60;;
20699;SDS011;10511;51.232;9.420;2023-04-03T01:38:43;1.50;;;1.50;;
20699;SDS011;10511;51.232;9.420;2023-04-03T01:41:10;1.50;;;1.50;;
20699;SDS011;10511;51.232;9.420;2023-04-03T01:43:37;1.60;;;1.60;;
20699;SDS011;10511;51.232;9.420;2023-04-03T01:46:04;1.70;;;1.70;;
20699;SDS011;10511;51.232;9.420;2023-04-03T01:48:31;1.60;;;1.60;;
20699;SDS011;10511;51.232;9.420;2023-04-03T01:51:00;1.70;;;1.70;;
20699;SDS011;10511;51.232;9.420;2023-04-03T01:53:26;1.60;;;1.60;;
20699;SDS011;10511;51.232;9.420;2023-04-03T01:55:53;1.67;;;1.67;;
20699;SDS011;10511;51.232;9.420;2023-04-03T01:58:20;1.60;;;1.60;;
20699;SDS011;10511;51.232;9.420;2023-04-03T02:00:47;1.60;;;1.60;;
20699;SDS011;10511;51.232;9.420;2023-04-03T02:03:14;1.60;;;1.60;;
20699;SDS011;10511;51.232;9.420;2023-04-03T02:05:41;1.53;;;1.53;;
20699;SDS011;10511;51.232;9.420;2023-04-03T02:08:09;1.70;;;1.70;;
20699;SDS011;10511;51.232;9.420;2023-04-03T02:10:36;1.70;;;1.70;;
20699;SDS011;10511;51.232;9.420;2023-04-03T02:13:03;1.60;;;1.60;;
20699;SDS011;10511;51.232;9.420;2023-04-03T02:15:30;1.60;;;1.60;;
20699;SDS011;10511;51.232;9.420;2023-04-03T02:17:57;1.60;;;1.60;;
20699;SDS011;10511;51.232;9.420;2023-04-03T02:20:24;1.60;;;1.60;;
20699;SDS011;10511;51.232;9.420;2023-04-03T02:22:51;1.60;;;1.60;;
20699;SDS011;10511;51.232;9.420;2023-04-03T02:25:19;1.77;;;1.77;;
20699;SDS011;10511;51.232;9.420;2023-04-03T02:27:46;1.70;;;1.70;;
20699;SDS011;10511;51.232;9.420;2023-04-03T02:30:13;1.60;;;1.60;;
20699;SDS011;10511;51.232;9.420;2023-04-03T02:32:40;1.70;;;1.70;;
20699;SDS011;10511;51.232;9.420;2023-04-03T02:35:08;1.70;;;1.70;;
20699;SDS011;10511;51.232;9.420;2023-04-03T02:37:35;1.60;;;1.60;;
20699;SDS011;10511;51.232;9.420;2023-04-03T02:40:02;1.70;;;1.70;;
20699;SDS011;10511;51.232;9.420;2023-04-03T02:42:31;1.73;;;1.73;;
20699;SDS011;10511;51.232;9.420;2023-04-03T02:44:58;1.70;;;1.70;;
20699;SDS011;10511;51.232;9.420;2023-04-03T02:47:26;1.70;;;1.70;;
20699;SDS011;10511;51.232;9.420;2023-04-03T02:49:53;1.60;;;1.60;;
20699;SDS011;10511;51.232;9.420;2023-04-03T02:52:20;1.60;;;1.60;;
20699;SDS011;10511;51.232;9.420;2023-04-03T02:54:47;1.70;;;1.70;;
20699;SDS011;10511;51.232;9.420;2023-04-03T02:57:14;1.77;;;1.77;;
20699;SDS011;10511;51.232;9.420;2023-04-03T02:59:42;1.77;;;1.77;;
20699;SDS011;10511;51.232;9.420;2023-04-03T03:02:09;1.70;;;1.70;;
20699;SDS011;10511;51.232;9.420;2023-04-03T03:04:36;1.70;;;1.70;;
20699;SDS011;10511;51.232;9.420;2023-04-03T03:07:03;1.70;;;1.70;;
20699;SDS011;10511;51.232;9.420;2023-04-03T03:09:30;1.70;;;1.70;;
20699;SDS011;10511;51.232;9.420;2023-04-03T03:11:58;1.70;;;1.70;;
20699;SDS011;10511;51.232;9.420;2023-04-03T03:14:25;1.70;;;1.70;;
20699;SDS011;10511;51.232;9.420;2023-04-03T03:16:53;1.70;;;1.70;;
20699;SDS011;10511;51.232;9.420;2023-04-03T03:19:20;1.70;;;1.70;;
20699;SDS011;10511;51.232;9.420;2023-04-03T03:21:47;1.70;;;1.70;;
20699;SDS011;10511;51.232;9.420;2023-04-03T03:24:14;1.60;;;1.60;;
20699;SDS011;10511;51.232;9.420;2023-04-03T03:26:41;1.70;;;1.70;;
20699;SDS011;10511;51.232;9.420;2023-04-03T03:29:08;1.77;;;1.77;;
20699;SDS011;10511;51.232;9.420;2023-04-03T03:31:35;1.70;;;1.70;;
20699;SDS011;10511;51.232;9.420;2023-04-03T03:34:03;1.70;;;1.70;;
20699;SDS011;10511;51.232;9.420;2023-04-03T03:36:30;1.70;;;1.70;;
20699;SDS011;10511;51.232;9.420;2023-04-03T03:38:57;1.80;;;1.80;;
20699;SDS011;10511;51.232;9.420;2023-04-03T03:41:24;1.80;;;1.80;;
20699;SDS011;10511;51.232;9.420;2023-04-03T03:43:51;1.80;;;1.80;;
20699;SDS011;10511;51.232;9.420;2023-04-03T03:46:18;1.90;;;1.90;;
20699;SDS011;10511;51.232;9.420;2023-04-03T03:48:45;1.80;;;1.80;;
20699;SDS011;10511;51.232;9.420;2023-04-03T03:51:13;1.80;;;1.80;;
20699;SDS011;10511;51.232;9.420;2023-04-03T03:53:40;1.70;;;1.70;;
20699;SDS011;10511;51.232;9.420;2023-04-03T03:56:07;1.80;;;1.80;;
20699;SDS011;10511;51.232;9.420;2023-04-03T03:58:34;1.80;;;1.80;;
20699;SDS011;10511;51.232;9.420;2023-04-03T04:01:01;1.70;;;1.70;;
20699;SDS011;10511;51.232;9.420;2023-04-03T04:03:28;1.80;;;1.80;;
20699;SDS011;10511;51.232;9.420;2023-04-03T04:05:55;1.70;;;1.70;;
20699;SDS011;10511;51.232;9.420;2023-04-03T04:08:23;1.77;;;1.77;;
20699;SDS011;10511;51.232;9.420;2023-04-03T04:10:50;1.83;;;1.83;;
20699;SDS011;10511;51.232;9.420;2023-04-03T04:13:17;1.70;;;1.70;;
20699;SDS011;10511;51.232;9.420;2023-04-03T04:15:44;1.70;;;1.70;;
20699;SDS011;10511;51.232;9.420;2023-04-03T04:18:10;1.80;;;1.80;;
20699;SDS011;10511;51.232;9.420;2023-04-03T04:20:37;1.80;;;1.80;;
20699;SDS011;10511;51.232;9.420;2023-04-03T04:23:04;1.87;;;1.87;;
20699;SDS011;10511;51.232;9.420;2023-04-03T04:25:32;1.90;;;1.90;;
20699;SDS011;10511;51.232;9.420;2023-04-03T04:27:59;1.80;;;1.80;;
20699;SDS011;10511;51.232;9.420;2023-04-03T04:30:26;1.80;;;1.80;;
20699;SDS011;10511;51.232;9.420;2023-04-03T04:32:53;1.77;;;1.77;;
20699;SDS011;10511;51.232;9.420;2023-04-03T04:35:20;1.83;;;1.83;;
20699;SDS011;10511;51.232;9.420;2023-04-03T04:37:49;1.77;;;1.77;;
20699;SDS011;10511;51.232;9.420;2023-04-03T04:40:16;1.80;;;1.80;;
20699;SDS011;10511;51.232;9.420;2023-04-03T04:42:44;1.80;;;1.80;;
20699;SDS011;10511;51.232;9.420;2023-04-03T04:45:11;1.80;;;1.80;;
20699;SDS011;10511;51.232;9.420;2023-04-03T04:47:38;1.80;;;1.80;;
20699;SDS011;10511;51.232;9.420;2023-04-03T04:50:05;1.80;;;1.80;;
20699;SDS011;10511;51.232;9.420;2023-04-03T04:52:32;1.80;;;1.80;;
20699;SDS011;10511;51.232;9.420;2023-04-03T04:54:59;1.90;;;1.90;;
20699;SDS011;10511;51.232;9.420;2023-04-03T04:57:26;1.80;;;1.80;;
20699;SDS011;10511;51.232;9.420;2023-04-03T04:59:55;1.90;;;1.90;;
20699;SDS011;10511;51.232;9.420;2023-04-03T05:02:21;1.90;;;1.90;;
20699;SDS011;10511;51.232;9.420;2023-04-03T05:04:48;1.80;;;1.80;;
20699;SDS011;10511;51.232;9.420;2023-04-03T05:07:17;1.90;;;1.90;;
20699;SDS011;10511;51.232;9.420;2023-04-03T05:09:43;1.90;;;1.90;;
20699;SDS011;10511;51.232;9.420;2023-04-03T05:12:10;1.90;;;1.90;;
20699;SDS011;10511;51.232;9.420;2023-04-03T05:14:37;1.97;;;1.97;;
20699;SDS011;10511;51.232;9.420;2023-04-03T05:17:06;1.90;;;1.90;;
20699;SDS011;10511;51.232;9.420;2023-04-03T05:19:32;1.90;;;1.90;;
20699;SDS011;10511;51.232;9.420;2023-04-03T05:21:59;1.90;;;1.90;;
20699;SDS011;10511;51.232;9.420;2023-04-03T05:24:26;1.80;;;1.80;;
20699;SDS011;10511;51.232;9.420;2023-04-03T05:26:53;1.90;;;1.90;;
20699;SDS011;10511;51.232;9.420;2023-04-03T05:29:20;1.80;;;1.80;;
20699;SDS011;10511;51.232;9.420;2023-04-03T05:31:48;1.80;;;1.80;;
20699;SDS011;10511;51.232;9.420;2023-04-03T05:34:16;1.80;;;1.80;;
20699;SDS011;10511;51.232;9.420;2023-04-03T05:36:43;1.80;;;1.80;;
20699;SDS011;10511;51.232;9.420;2023-04-03T05:39:10;1.83;;;1.83;;
20699;SDS011;10511;51.232;9.420;2023-04-03T05:41:37;1.80;;;1.80;;
20699;SDS011;10511;51.232;9.420;2023-04-03T05:44:04;1.90;;;1.90;;
20699;SDS011;10511;51.232;9.420;2023-04-03T05:46:31;1.90;;;1.90;;
20699;SDS011;10511;51.232;9.420;2023-04-03T05:48:58;1.80;;;1.80;;
20699;SDS011;10511;51.232;9.420;2023-04-03T05:51:28;1.90;;;1.90;;
20699;SDS011;10511;51.232;9.420;2023-04-03T05:53:59;1.80;;;1.80;;
20699;SDS011;10511;51.232;9.420;2023-04-03T05:56:32;1.83;;;1.83;;
20699;SDS011;10511;51.232;9.420;2023-04-03T05:58:59;1.90;;;1.90;;
20699;SDS011;10511;51.232;9.420;2023-04-03T06:01:25;1.90;;;1.90;;
20699;SDS011;10511;51.232;9.420;2023-04-03T06:03:53;1.70;;;1.70;;
20699;SDS011;10511;51.232;9.420;2023-04-03T06:06:20;1.70;;;1.70;;
20699;SDS011;10511;51.232;9.420;2023-04-03T06:08:49;1.80;;;1.80;;
20699;SDS011;10511;51.232;9.420;2023-04-03T06:11:16;1.90;;;1.90;;
20699;SDS011;10511;51.232;9.420;2023-04-03T06:13:43;1.83;;;1.83;;
20699;SDS011;10511;51.232;9.420;2023-04-03T06:16:11;1.70;;;1.70;;
20699;SDS011;10511;51.232;9.420;2023-04-03T06:18:40;1.70;;;1.70;;
20699;SDS011;10511;51.232;9.420;2023-04-03T06:21:07;1.80;;;1.80;;
20699;SDS011;10511;51.232;9.420;2023-04-03T06:23:34;1.73;;;1.73;;
20699;SDS011;10511;51.232;9.420;2023-04-03T06:26:03;1.80;;;1.80;;
20699;SDS011;10511;51.232;9.420;2023-04-03T06:28:30;1.70;;;1.70;;
20699;SDS011;10511;51.232;9.420;2023-04-03T06:30:57;1.70;;;1.70;;
20699;SDS011;10511;51.232;9.420;2023-04-03T06:33:24;1.70;;;1.70;;
20699;SDS011;10511;51.232;9.420;2023-04-03T06:35:55;1.63;;;1.63;;
20699;SDS011;10511;51.232;9.420;2023-04-03T06:38:22;1.60;;;1.60;;
20699;SDS011;10511;51.232;9.420;2023-04-03T06:40:49;1.67;;;1.67;;
20699;SDS011;10511;51.232;9.420;2023-04-03T06:43:18;1.60;;;1.60;;
20699;SDS011;10511;51.232;9.420;2023-04-03T06:45:45;1.60;;;1.60;;
20699;SDS011;10511;51.232;9.420;2023-04-03T06:48:12;1.50;;;1.50;;
20699;SDS011;10511;51.232;9.420;2023-04-03T06:50:40;1.80;;;1.80;;
20699;SDS011;10511;51.232;9.420;2023-04-03T06:53:07;1.60;;;1.60;;
20699;SDS011;10511;51.232;9.420;2023-04-03T06:55:34;1.60;;;1.60;;
20699;SDS011;10511;51.232;9.420;2023-04-03T06:58:02;1.60;;;1.60;;
20699;SDS011;10511;51.232;9.420;2023-04-03T07:00:31;1.60;;;1.60;;
20699;SDS011;10511;51.232;9.420;2023-04-03T07:02:57;1.60;;;1.60;;
20699;SDS011;10511;51.232;9.420;2023-04-03T07:05:24;1.50;;;1.50;;
20699;SDS011;10511;51.232;9.420;2023-04-03T07:07:52;1.50;;;1.50;;
20699;SDS011;10511;51.232;9.420;2023-04-03T07:10:19;1.50;;;1.50;;
20699;SDS011;10511;51.232;9.420;2023-04-03T07:12:46;1.70;;;1.70;;
20699;SDS011;10511;51.232;9.420;2023-04-03T07:15:13;1.50;;;1.50;;
20699;SDS011;10511;51.232;9.420;2023-04-03T07:17:41;1.60;;;1.60;;
20699;SDS011;10511;51.232;9.420;2023-04-03T07:20:09;1.60;;;1.60;;
20699;SDS011;10511;51.232;9.420;2023-04-03T07:22:36;1.50;;;1.50;;
20699;SDS011;10511;51.232;9.420;2023-04-03T07:25:03;1.50;;;1.50;;
20699;SDS011;10511;51.232;9.420;2023-04-03T07:27:32;1.50;;;1.50;;
20699;SDS011;10511;51.232;9.420;2023-04-03T07:29:59;1.50;;;1.50;;
20699;SDS011;10511;51.232;9.420;2023-04-03T07:32:26;1.50;;;1.50;;
20699;SDS011;10511;51.232;9.420;2023-04-03T07:34:54;1.50;;;1.50;;
20699;SDS011;10511;51.232;9.420;2023-04-03T07:37:21;1.50;;;1.50;;
20699;SDS011;10511;51.232;9.420;2023-04-03T07:39:48;1.40;;;1.40;;
20699;SDS011;10511;51.232;9.420;2023-04-03T07:42:15;1.40;;;1.40;;
20699;SDS011;10511;51.232;9.420;2023-04-03T07:44:42;1.40;;;1.40;;
20699;SDS011;10511;51.232;9.420;2023-04-03T07:47:09;1.50;;;1.50;;
20699;SDS011;10511;51.232;9.420;2023-04-03T07:49:36;1.40;;;1.40;;
20699;SDS011;10511;51.232;9.420;2023-04-03T07:52:06;1.50;;;1.50;;
20699;SDS011;10511;51.232;9.420;2023-04-03T07:54:34;1.40;;;1.40;;
20699;SDS011;10511;51.232;9.420;2023-04-03T07:57:01;1.40;;;1.40;;
20699;SDS011;10511;51.232;9.420;2023-04-03T07:59:29;1.40;;;1.40;;
20699;SDS011;10511;51.232;9.420;2023-04-03T08:01:55;1.43;;;1.43;;
20699;SDS011;10511;51.232;9.420;2023-04-03T08:04:22;1.40;;;1.40;;
20699;SDS011;10511;51.232;9.420;2023-04-03T08:06:50;1.30;;;1.30;;
20699;SDS011;10511;51.232;9.420;2023-04-03T08:09:18;1.50;;;1.50;;
20699;SDS011;10511;51.232;9.420;2023-04-03T08:11:45;1.50;;;1.50;;
20699;SDS011;10511;51.232;9.420;2023-04-03T08:14:12;1.50;;;1.50;;
20699;SDS011;10511;51.232;9.420;2023-04-03T08:16:43;1.50;;;1.50;;
20699;SDS011;10511;51.232;9.420;2023-04-03T08:19:10;1.60;;;1.60;;
20699;SDS011;10511;51.232;9.420;2023-04-03T08:21:39;1.40;;;1.40;;
20699;SDS011;10511;51.232;9.420;2023-04-03T08:24:06;1.40;;;1.40;;
20699;SDS011;10511;51.232;9.420;2023-04-03T08:26:35;1.30;;;1.30;;
20699;SDS011;10511;51.232;9.420;2023-04-03T08:29:02;1.40;;;1.40;;
20699;SDS011;10511;51.232;9.420;2023-04-03T08:31:29;1.30;;;1.30;;
20699;SDS011;10511;51.232;9.420;2023-04-03T08:33:56;1.50;;;1.50;;
20699;SDS011;10511;51.232;9.420;2023-04-03T08:36:24;1.30;;;1.30;;
20699;SDS011;10511;51.232;9.420;2023-04-03T08:38:53;1.30;;;1.30;;
20699;SDS011;10511;51.232;9.420;2023-04-03T08:41:25;1.30;;;1.30;;
20699;SDS011;10511;51.232;9.420;2023-04-03T08:44:00;1.30;;;1.30;;
20699;SDS011;10511;51.232;9.420;2023-04-03T08:46:37;1.47;;;1.47;;
20699;SDS011;10511;51.232;9.420;2023-04-03T08:49:15;1.30;;;1.30;;
20699;SDS011;10511;51.232;9.420;2023-04-03T08:51:49;1.30;;;1.30;;
20699;SDS011;10511;51.232;9.420;2023-04-03T08:54:21;1.30;;;1.30;;
20699;SDS011;10511;51.232;9.420;2023-04-03T08:56:53;1.43;;;1.43;;
20699;SDS011;10511;51.232;9.420;2023-04-03T08:59:24;1.40;;;1.40;;
20699;SDS011;10511;51.232;9.420;2023-04-03T09:01:53;1.30;;;1.30;;
20699;SDS011;10511;51.232;9.420;2023-04-03T09:04:22;1.40;;;1.40;;
20699;SDS011;10511;51.232;9.420;2023-04-03T09:06:51;1.30;;;1.30;;
20699;SDS011;10511;51.232;9.420;2023-04-03T09:09:24;1.30;;;1.30;;
20699;SDS011;10511;51.232;9.420;2023-04-03T09:12:00;1.20;;;1.20;;
20699;SDS011;10511;51.232;9.420;2023-04-03T09:14:38;1.30;;;1.30;;
20699;SDS011;10511;51.232;9.420;2023-04-03T09:17:10;1.40;;;1.40;;
20699;SDS011;10511;51.232;9.420;2023-04-03T09:19:45;1.40;;;1.40;;
20699;SDS011;10511;51.232;9.420;2023-04-03T09:22:21;1.30;;;1.30;;
20699;SDS011;10511;51.232;9.420;2023-04-03T09:24:52;1.50;;;1.50;;
20699;SDS011;10511;51.232;9.420;2023-04-03T09:27:25;1.40;;;1.40;;
20699;SDS011;10511;51.232;9.420;2023-04-03T09:29:53;1.30;;;1.30;;
20699;SDS011;10511;51.232;9.420;2023-04-03T09:32:25;1.40;;;1.40;;
20699;SDS011;10511;51.232;9.420;2023-04-03T09:34:53;1.30;;;1.30;;
20699;SDS011;10511;51.232;9.420;2023-04-03T09:37:35;1.30;;;1.30;;
20699;SDS011;10511;51.232;9.420;2023-04-03T09:40:04;1.40;;;1.40;;
20699;SDS011;10511;51.232;9.420;2023-04-03T09:42:53;1.30;;;1.30;;
20699;SDS011;10511;51.232;9.420;2023-04-03T09:45:22;1.30;;;1.30;;
20699;SDS011;10511;51.232;9.420;2023-04-03T09:48:05;1.20;;;1.20;;
20699;SDS011;10511;51.232;9.420;2023-04-03T09:50:34;1.20;;;1.20;;
20699;SDS011;10511;51.232;9.420;2023-04-03T09:53:04;1.30;;;1.30;;
20699;SDS011;10511;51.232;9.420;2023-04-03T09:55:33;1.30;;;1.30;;
20699;SDS011;10511;51.232;9.420;2023-04-03T09:58:22;1.30;;;1.30;;
20699;SDS011;10511;51.232;9.420;2023-04-03T10:00:55;1.40;;;1.40;;
20699;SDS011;10511;51.232;9.420;2023-04-03T10:03:24;1.30;;;1.30;;
20699;SDS011;10511;51.232;9.420;2023-04-03T10:05:53;1.40;;;1.40;;
20699;SDS011;10511;51.232;9.420;2023-04-03T10:08:23;1.40;;;1.40;;
20699;SDS011;10511;51.232;9.420;2023-04-03T10:11:08;1.40;;;1.40;;
20699;SDS011;10511;51.232;9.420;2023-04-03T10:13:49;1.50;;;1.50;;
20699;SDS011;10511;51.232;9.420;2023-04-03T10:16:19;1.50;;;1.50;;
20699;SDS011;10511;51.232;9.420;2023-04-03T10:18:52;1.50;;;1.50;;
20699;SDS011;10511;51.232;9.420;2023-04-03T10:21:35;1.40;;;1.40;;
20699;SDS011;10511;51.232;9.420;2023-04-03T10:24:09;1.40;;;1.40;;
20699;SDS011;10511;51.232;9.420;2023-04-03T10:26:42;1.30;;;1.30;;
20699;SDS011;10511;51.232;9.420;2023-04-03T10:29:16;1.30;;;1.30;;
20699;SDS011;10511;51.232;9.420;2023-04-03T10:31:53;1.30;;;1.30;;
20699;SDS011;10511;51.232;9.420;2023-04-03T10:34:28;1.40;;;1.40;;
20699;SDS011;10511;51.232;9.420;2023-04-03T10:37:00;1.47;;;1.47;;
20699;SDS011;10511;51.232;9.420;2023-04-03T10:39:34;1.30;;;1.30;;
20699;SDS011;10511;51.232;9.420;2023-04-03T10:42:07;1.30;;;1.30;;
20699;SDS011;10511;51.232;9.420;2023-04-03T10:44:41;1.30;;;1.30;;
20699;SDS011;10511;51.232;9.420;2023-04-03T10:47:30;1.30;;;1.30;;
20699;SDS011;10511;51.232;9.420;2023-04-03T10:50:07;1.30;;;1.30;;
20699;SDS011;10511;51.232;9.420;2023-04-03T10:52:50;1.20;;;1.20;;
20699;SDS011;10511;51.232;9.420;2023-04-03T10:55:24;1.10;;;1.10;;
20699;SDS011;10511;51.232;9.420;2023-04-03T10:58:00;1.20;;;1.20;;
20699;SDS011;10511;51.232;9.420;2023-04-03T11:00:30;1.20;;;1.20;;
20699;SDS011;10511;51.232;9.420;2023-04-03T11:03:05;1.10;;;1.10;;
20699;SDS011;10511;51.232;9.420;2023-04-03T11:05:36;1.20;;;1.20;;
20699;SDS011;10511;51.232;9.420;2023-04-03T11:08:10;1.30;;;1.30;;
20699;SDS011;10511;51.232;9.420;2023-04-03T11:10:44;1.20;;;1.20;;
20699;SDS011;10511;51.232;9.420;2023-04-03T11:13:13;1.20;;;1.20;;
20699;SDS011;10511;51.232;9.420;2023-04-03T11:15:43;1.10;;;1.10;;
20699;SDS011;10511;51.232;9.420;2023-04-03T11:18:14;1.17;;;1.17;;
20699;SDS011;10511;51.232;9.420;2023-04-03T11:20:53;1.20;;;1.20;;
20699;SDS011;10511;51.232;9.420;2023-04-03T11:23:28;1.37;;;1.37;;
20699;SDS011;10511;51.232;9.420;2023-04-03T11:26:01;1.20;;;1.20;;
20699;SDS011;10511;51.232;9.420;2023-04-03T11:28:36;1.27;;;1.27;;
20699;SDS011;10511;51.232;9.420;2023-04-03T11:31:06;1.30;;;1.30;;
20699;SDS011;10511;51.232;9.420;2023-04-03T11:33:58;1.27;;;1.27;;
20699;SDS011;10511;51.232;9.420;2023-04-03T11:36:34;1.30;;;1.30;;
20699;SDS011;10511;51.232;9.420;2023-04-03T11:39:09;1.20;;;1.20;;
20699;SDS011;10511;51.232;9.420;2023-04-03T11:41:43;1.20;;;1.20;;
20699;SDS011;10511;51.232;9.420;2023-04-03T11:44:25;1.20;;;1.20;;
20699;SDS011;10511;51.232;9.420;2023-04-03T11:46:57;1.20;;;1.20;;
20699;SDS011;10511;51.232;9.420;2023-04-03T11:58:25;1.10;;;1.10;;
20699;SDS011;10511;51.232;9.420;2023-04-03T12:00:59;1.20;;;1.20;;
20699;SDS011;10511;51.232;9.420;2023-04-03T12:06:48;1.20;;;1.20;;
20699;SDS011;10511;51.232;9.420;2023-04-03T12:12:43;1.13;;;1.13;;
20699;SDS011;10511;51.232;9.420;2023-04-03T12:24:40;1.20;;;1.20;;
20699;SDS011;10511;51.232;9.420;2023-04-03T12:27:20;1.10;;;1.10;;
20699;SDS011;10511;51.232;9.420;2023-04-03T12:29:59;1.10;;;1.10;;
20699;SDS011;10511;51.232;9.420;2023-04-03T12:32:37;1.10;;;1.10;;
20699;SDS011;10511;51.232;9.420;2023-04-03T12:35:24;1.13;;;1.13;;
20699;SDS011;10511;51.232;9.420;2023-04-03T12:38:16;1.10;;;1.10;;
20699;SDS011;10511;51.232;9.420;2023-04-03T12:41:18;1.10;;;1.10;;
20699;SDS011;10511;51.232;9.420;2023-04-03T12:43:59;1.20;;;1.20;;
20699;SDS011;10511;51.232;9.420;2023-04-03T12:46:35;1.10;;;1.10;;
20699;SDS011;10511;51.232;9.420;2023-04-03T12:49:13;1.13;;;1.13;;
20699;SDS011;10511;51.232;9.420;2023-04-03T12:51:50;1.10;;;1.10;;
20699;SDS011;10511;51.232;9.420;2023-04-03T12:54:19;1.20;;;1.20;;
20699;SDS011;10511;51.232;9.420;2023-04-03T12:56:49;1.10;;;1.10;;
20699;SDS011;10511;51.232;9.420;2023-04-03T12:59:18;1.20;;;1.20;;
20699;SDS011;10511;51.232;9.420;2023-04-03T13:01:52;1.10;;;1.10;;
20699;SDS011;10511;51.232;9.420;2023-04-03T13:04:20;1.10;;;1.10;;
20699;SDS011;10511;51.232;9.420;2023-04-03T13:06:47;1.10;;;1.10;;
20699;SDS011;10511;51.232;9.420;2023-04-03T13:09:19;1.10;;;1.10;;
20699;SDS011;10511;51.232;9.420;2023-04-03T13:11:48;1.10;;;1.10;;
20699;SDS011;10511;51.232;9.420;2023-04-03T13:14:17;1.10;;;1.10;;
20699;SDS011;10511;51.232;9.420;2023-04-03T13:16:52;1.10;;;1.10;;
20699;SDS011;10511;51.232;9.420;2023-04-03T13:19:22;1.10;;;1.10;;
20699;SDS011;10511;51.232;9.420;2023-04-03T13:21:50;1.10;;;1.10;;
20699;SDS011;10511;51.232;9.420;2023-04-03T13:24:24;1.10;;;1.10;;
20699;SDS011;10511;51.232;9.420;2023-04-03T13:26:52;1.20;;;1.20;;
20699;SDS011;10511;51.232;9.420;2023-04-03T13:29:21;1.20;;;1.20;;
20699;SDS011;10511;51.232;9.420;2023-04-03T13:31:52;1.10;;;1.10;;
20699;SDS011;10511;51.232;9.420;2023-04-03T13:34:21;1.10;;;1.10;;
20699;SDS011;10511;51.232;9.420;2023-04-03T13:37:00;1.10;;;1.10;;
20699;SDS011;10511;51.232;9.420;2023-04-03T13:39:31;1.10;;;1.10;;
20699;SDS011;10511;51.232;9.420;2023-04-03T13:42:00;1.10;;;1.10;;
20699;SDS011;10511;51.232;9.420;2023-04-03T13:44:41;1.10;;;1.10;;
20699;SDS011;10511;51.232;9.420;2023-04-03T13:47:16;1.20;;;1.20;;
20699;SDS011;10511;51.232;9.420;2023-04-03T13:49:46;1.20;;;1.20;;
20699;SDS011;10511;51.232;9.420;2023-04-03T13:52:27;1.20;;;1.20;;
20699;SDS011;10511;51.232;9.420;2023-04-03T13:54:57;1.13;;;1.13;;
20699;SDS011;10511;51.232;9.420;2023-04-03T13:57:25;1.10;;;1.10;;
20699;SDS011;10511;51.232;9.420;2023-04-03T13:59:53;1.10;;;1.10;;
20699;SDS011;10511;51.232;9.420;2023-04-03T14:02:22;1.10;;;1.10;;
20699;SDS011;10511;51.232;9.420;2023-04-03T14:04:56;1.10;;;1.10;;
20699;SDS011;10511;51.232;9.420;2023-04-03T14:07:26;1.20;;;1.20;;
20699;SDS011;10511;51.232;9.420;2023-04-03T14:09:57;1.17;;;1.17;;
20699;SDS011;10511;51.232;9.420;2023-04-03T14:12:25;1.27;;;1.27;;
20699;SDS011;10511;51.232;9.420;2023-04-03T14:14:55;1.10;;;1.10;;
20699;SDS011;10511;51.232;9.420;2023-04-03T14:17:23;1.10;;;1.10;;
20699;SDS011;10511;51.232;9.420;2023-04-03T14:19:51;1.10;;;1.10;;
20699;SDS011;10511;51.232;9.420;2023-04-03T14:22:21;1.10;;;1.10;;
20699;SDS011;10511;51.232;9.420;2023-04-03T14:24:50;1.00;;;1.00;;
20699;SDS011;10511;51.232;9.420;2023-04-03T14:27:20;1.10;;;1.10;;
20699;SDS011;10511;51.232;9.420;2023-04-03T14:29:49;1.10;;;1.10;;
20699;SDS011;10511;51.232;9.420;2023-04-03T14:32:18;1.20;;;1.20;;
20699;SDS011;10511;51.232;9.420;2023-04-03T14:34:46;1.13;;;1.13;;
20699;SDS011;10511;51.232;9.420;2023-04-03T14:37:15;1.20;;;1.20;;
20699;SDS011;10511;51.232;9.420;2023-04-03T14:39:43;1.20;;;1.20;;
20699;SDS011;10511;51.232;9.420;2023-04-03T14:42:14;1.20;;;1.20;;
20699;SDS011;10511;51.232;9.420;2023-04-03T14:44:44;1.20;;;1.20;;
20699;SDS011;10511;51.232;9.420;2023-04-03T14:47:11;1.10;;;1.10;;
20699;SDS011;10511;51.232;9.420;2023-04-03T14:49:40;1.10;;;1.10;;
20699;SDS011;10511;51.232;9.420;2023-04-03T14:52:09;1.13;;;1.13;;
20699;SDS011;10511;51.232;9.420;2023-04-03T14:54:44;1.17;;;1.17;;
20699;SDS011;10511;51.232;9.420;2023-04-03T14:57:14;1.20;;;1.20;;
20699;SDS011;10511;51.232;9.420;2023-04-03T14:59:43;1.20;;;1.20;;
20699;SDS011;10511;51.232;9.420;2023-04-03T15:02:22;1.10;;;1.10;;
20699;SDS011;10511;51.232;9.420;2023-04-03T15:04:52;1.20;;;1.20;;
20699;SDS011;10511;51.232;9.420;2023-04-03T15:07:19;1.20;;;1.20;;
20699;SDS011;10511;51.232;9.420;2023-04-03T15:09:49;1.10;;;1.10;;
20699;SDS011;10511;51.232;9.420;2023-04-03T15:12:16;1.10;;;1.10;;
20699;SDS011;10511;51.232;9.420;2023-04-03T15:14:45;1.17;;;1.17;;
20699;SDS011;10511;51.232;9.420;2023-04-03T15:17:14;1.20;;;1.20;;
20699;SDS011;10511;51.232;9.420;2023-04-03T15:19:43;1.20;;;1.20;;
20699;SDS011;10511;51.232;9.420;2023-04-03T15:22:12;1.13;;;1.13;;
20699;SDS011;10511;51.232;9.420;2023-04-03T15:24:41;1.20;;;1.20;;
20699;SDS011;10511;51.232;9.420;2023-04-03T15:27:08;1.20;;;1.20;;
20699;SDS011;10511;51.232;9.420;2023-04-03T15:29:36;1.20;;;1.20;;
20699;SDS011;10511;51.232;9.420;2023-04-03T15:32:04;1.20;;;1.20;;